Time;durP1;ratioP1;P1;durP2;ratioP2;P2;SDS_P1;SDS_P2;PMS_P1;PMS_P2;Temp;Humidity;BMP_temperature;BMP_pressure;BME280_temperature;BME280_humidity;BME280_pressure;Samples;Min_cycle;Max_cycle;Signal;HPM_P1;HPM_P2
2020/12/24 00:00:29;;;;;;;2.97;1;;;10.6;99.9;;;;;;;;;
2020/12/24 00:01:02;;;;;;;2.97;1;;;10.6;99.9;;;;;;;;;
2020/12/24 00:02:02;;;;;;;2.97;1;;;10.6;99.9;;;;;;;;;
2020/12/24 00:02:42;;;;;;;4.85;1.1;;;10.6;99.9;;;;;;;;;
2020/12/24 00:03:02;;;;;;;4.85;1.1;;;10.6;99.9;;;;;;;;;
2020/12/24 00:03:13;;;;;;;4.85;1.1;;;10.6;99.9;;;;;;;;;
2020/12/24 00:04:02;;;;;;;1.67;1.05;;;10.6;99.9;;;;;;;;;
2020/12/24 00:04:14;;;;;;;1.67;1.05;;;10.6;99.9;;;;;;;;;
2020/12/24 00:04:55;;;;;;;2.95;1.13;;;10.6;99.9;;;;;;;;;
2020/12/24 00:05:02;;;;;;;2.95;1.13;;;10.6;99.9;;;;;;;;;
2020/12/24 00:05:16;;;;;;;2.95;1.13;;;10.6;99.9;;;;;;;;;
2020/12/24 00:05:26;;;;;;;2.92;1.13;;;10.6;99.9;;;;;;;;;
2020/12/24 00:06:02;;;;;;;2.92;1.13;;;10.6;99.9;;;;;;;;;
2020/12/24 00:06:17;;;;;;;2.92;1.13;;;10.6;99.9;;;;;;;;;
2020/12/24 00:06:27;;;;;;;5.43;1.55;;;10.6;99.9;;;;;;;;;
2020/12/24 00:07:02;;;;;;;5.43;1.55;;;10.6;99.9;;;;;;;;;
2020/12/24 00:07:08;;;;;;;5.43;1.55;;;10.6;99.9;;;;;;;;;
2020/12/24 00:07:13;;;;;;;5.43;1.55;;;10.6;99.9;;;;;;;;;
2020/12/24 00:07:29;;;;;;;4.9;1.38;;;10.6;99.9;;;;;;;;;
2020/12/24 00:07:39;;;;;;;4.9;1.38;;;10.6;99.9;;;;;;;;;
2020/12/24 00:08:02;;;;;;;4.9;1.38;;;10.6;99.9;;;;;;;;;
2020/12/24 00:08:15;;;;;;;4.9;1.38;;;10.6;99.9;;;;;;;;;
2020/12/24 00:08:30;;;;;;;11.07;1.7;;;10.6;99.9;;;;;;;;;
2020/12/24 00:08:40;;;;;;;11.07;1.7;;;10.6;99.9;;;;;;;;;
2020/12/24 00:09:02;;;;;;;11.07;1.7;;;10.6;99.9;;;;;;;;;
2020/12/24 00:09:16;;;;;;;11.07;1.7;;;10.6;99.9;;;;;;;;;
2020/12/24 00:09:26;;;;;;;11.07;1.7;;;10.6;99.9;;;;;;;;;
2020/12/24 00:09:44;;;;;;;1.8;1.1;;;10.6;99.9;;;;;;;;;
2020/12/24 00:09:52;;;;;;;1.8;1.1;;;10.6;99.9;;;;;;;;;
2020/12/24 00:10:02;;;;;;;1.8;1.1;;;10.6;99.9;;;;;;;;;
2020/12/24 00:10:12;;;;;;;1.8;1.1;;;10.6;99.9;;;;;;;;;
2020/12/24 00:10:28;;;;;;;4.68;1.67;;;10.6;99.9;;;;;;;;;
2020/12/24 00:10:43;;;;;;;4.68;1.67;;;10.6;99.9;;;;;;;;;
2020/12/24 00:10:53;;;;;;;4.68;1.67;;;10.6;99.9;;;;;;;;;
2020/12/24 00:11:02;;;;;;;4.68;1.67;;;10.6;99.9;;;;;;;;;
2020/12/24 00:11:14;;;;;;;4.68;1.67;;;10.6;99.9;;;;;;;;;
2020/12/24 00:11:29;;;;;;;2.97;1.2;;;10.6;99.9;;;;;;;;;
2020/12/24 00:11:39;;;;;;;2.97;1.2;;;10.6;99.9;;;;;;;;;
2020/12/24 00:11:55;;;;;;;2.97;1.2;;;10.6;99.9;;;;;;;;;
2020/12/24 00:12:02;;;;;;;2.97;1.2;;;10.6;99.9;;;;;;;;;
2020/12/24 00:12:05;;;;;;;2.97;1.2;;;10.6;99.9;;;;;;;;;
2020/12/24 00:12:15;;;;;;;2.97;1.2;;;10.6;99.9;;;;;;;;;
2020/12/24 00:12:25;;;;;;;2.97;1.2;;;10.6;99.9;;;;;;;;;
2020/12/24 00:12:41;;;;;;;2.38;1;;;10.5;99.9;;;;;;;;;
2020/12/24 00:12:56;;;;;;;2.38;1;;;10.5;99.9;;;;;;;;;
2020/12/24 00:13:02;;;;;;;2.38;1;;;10.5;99.9;;;;;;;;;
2020/12/24 00:13:06;;;;;;;2.38;1;;;10.5;99.9;;;;;;;;;
2020/12/24 00:13:17;;;;;;;2.38;1;;;10.5;99.9;;;;;;;;;
2020/12/24 00:13:27;;;;;;;2.38;1;;;10.5;99.9;;;;;;;;;
2020/12/24 00:13:42;;;;;;;2.83;1.27;;;10.5;99.9;;;;;;;;;
2020/12/24 00:13:53;;;;;;;2.83;1.27;;;10.5;99.9;;;;;;;;;
2020/12/24 00:14:02;;;;;;;2.83;1.27;;;10.5;99.9;;;;;;;;;
2020/12/24 00:14:08;;;;;;;2.83;1.27;;;10.5;99.9;;;;;;;;;
2020/12/24 00:14:13;;;;;;;2.83;1.27;;;10.5;99.9;;;;;;;;;
2020/12/24 00:14:28;;;;;;;4.95;1.7;;;10.5;99.9;;;;;;;;;
2020/12/24 00:14:39;;;;;;;4.95;1.7;;;10.5;99.9;;;;;;;;;
2020/12/24 00:14:54;;;;;;;4.95;1.7;;;10.5;99.9;;;;;;;;;
2020/12/24 00:15:02;;;;;;;4.95;1.7;;;10.5;99.9;;;;;;;;;
2020/12/24 00:15:09;;;;;;;4.95;1.7;;;10.5;99.9;;;;;;;;;
2020/12/24 00:15:16;;;;;;;4.95;1.7;;;10.5;99.9;;;;;;;;;
2020/12/24 00:15:30;;;;;;;2.7;1;;;10.5;99.9;;;;;;;;;
2020/12/24 00:15:40;;;;;;;2.7;1;;;10.5;99.9;;;;;;;;;
2020/12/24 00:15:55;;;;;;;2.7;1;;;10.5;99.9;;;;;;;;;
2020/12/24 00:16:02;;;;;;;2.7;1;;;10.5;99.9;;;;;;;;;
2020/12/24 00:16:06;;;;;;;2.7;1;;;10.5;99.9;;;;;;;;;
2020/12/24 00:16:16;;;;;;;2.7;1;;;10.5;99.9;;;;;;;;;
2020/12/24 00:16:26;;;;;;;2.7;1;;;10.5;99.9;;;;;;;;;
2020/12/24 00:16:41;;;;;;;3.47;1.13;;;10.5;99.9;;;;;;;;;
2020/12/24 00:16:52;;;;;;;3.47;1.13;;;10.5;99.9;;;;;;;;;
2020/12/24 00:17:02;;;;;;;3.47;1.13;;;10.5;99.9;;;;;;;;;
2020/12/24 00:17:07;;;;;;;3.47;1.13;;;10.5;99.9;;;;;;;;;
2020/12/24 00:17:12;;;;;;;3.47;1.13;;;10.5;99.9;;;;;;;;;
2020/12/24 00:17:28;;;;;;;3.47;1.13;;;10.5;99.9;;;;;;;;;
2020/12/24 00:17:43;;;;;;;3.33;0.88;;;10.5;99.9;;;;;;;;;
2020/12/24 00:17:53;;;;;;;3.33;0.88;;;10.5;99.9;;;;;;;;;
2020/12/24 00:18:02;;;;;;;3.33;0.88;;;10.5;99.9;;;;;;;;;
2020/12/24 00:18:08;;;;;;;3.33;0.88;;;10.5;99.9;;;;;;;;;
2020/12/24 00:18:14;;;;;;;3.33;0.88;;;10.5;99.9;;;;;;;;;
2020/12/24 00:18:29;;;;;;;3.33;0.88;;;10.5;99.9;;;;;;;;;
2020/12/24 00:18:39;;;;;;;6.55;1.75;;;10.5;99.9;;;;;;;;;
2020/12/24 00:18:55;;;;;;;6.55;1.75;;;10.5;99.9;;;;;;;;;
2020/12/24 00:19:01;;;;;;;6.55;1.75;;;10.5;99.9;;;;;;;;;
2020/12/24 00:19:05;;;;;;;6.55;1.75;;;10.5;99.9;;;;;;;;;
2020/12/24 00:19:15;;;;;;;6.55;1.75;;;10.5;99.9;;;;;;;;;
2020/12/24 00:19:25;;;;;;;6.55;1.75;;;10.5;99.9;;;;;;;;;
2020/12/24 00:19:41;;;;;;;3.72;1.2;;;10.5;99.9;;;;;;;;;
2020/12/24 00:19:56;;;;;;;3.72;1.2;;;10.5;99.9;;;;;;;;;
2020/12/24 00:20:02;;;;;;;3.72;1.2;;;10.5;99.9;;;;;;;;;
2020/12/24 00:20:06;;;;;;;3.72;1.2;;;10.5;99.9;;;;;;;;;
2020/12/24 00:20:17;;;;;;;3.72;1.2;;;10.5;99.9;;;;;;;;;
2020/12/24 00:20:27;;;;;;;3.72;1.2;;;10.5;99.9;;;;;;;;;
2020/12/24 00:20:42;;;;;;;4.2;1.63;;;10.5;99.9;;;;;;;;;
2020/12/24 00:20:52;;;;;;;4.2;1.63;;;10.5;99.9;;;;;;;;;
2020/12/24 00:21:02;;;;;;;4.2;1.63;;;10.5;99.9;;;;;;;;;
2020/12/24 00:21:08;;;;;;;4.2;1.63;;;10.5;99.9;;;;;;;;;
2020/12/24 00:21:13;;;;;;;4.2;1.63;;;10.5;99.9;;;;;;;;;
2020/12/24 00:21:28;;;;;;;4.2;1.63;;;10.5;99.9;;;;;;;;;
2020/12/24 00:21:38;;;;;;;3.8;1.13;;;10.4;99.9;;;;;;;;;
2020/12/24 00:21:54;;;;;;;3.8;1.13;;;10.4;99.9;;;;;;;;;
2020/12/24 00:22:01;;;;;;;3.8;1.13;;;10.4;99.9;;;;;;;;;
2020/12/24 00:22:09;;;;;;;3.8;1.13;;;10.4;99.9;;;;;;;;;
2020/12/24 00:22:14;;;;;;;3.8;1.13;;;10.4;99.9;;;;;;;;;
2020/12/24 00:22:30;;;;;;;3.8;1.13;;;10.4;99.9;;;;;;;;;
2020/12/24 00:22:40;;;;;;;4.93;0.9;;;10.4;99.9;;;;;;;;;
2020/12/24 00:22:55;;;;;;;4.93;0.9;;;10.4;99.9;;;;;;;;;
2020/12/24 00:23:02;;;;;;;4.93;0.9;;;10.4;99.9;;;;;;;;;
2020/12/24 00:23:05;;;;;;;4.93;0.9;;;10.4;99.9;;;;;;;;;
2020/12/24 00:23:21;;;;;;;4.93;0.9;;;10.4;99.9;;;;;;;;;
2020/12/24 00:23:26;;;;;;;4.93;0.9;;;10.4;99.9;;;;;;;;;
2020/12/24 00:23:46;;;;;;;3.38;1.1;;;10.4;99.9;;;;;;;;;
2020/12/24 00:23:52;;;;;;;3.38;1.1;;;10.4;99.9;;;;;;;;;
2020/12/24 00:24:01;;;;;;;3.38;1.1;;;10.4;99.9;;;;;;;;;
2020/12/24 00:24:07;;;;;;;3.38;1.1;;;10.4;99.9;;;;;;;;;
2020/12/24 00:24:14;;;;;;;3.38;1.1;;;10.4;99.9;;;;;;;;;
2020/12/24 00:24:27;;;;;;;3.38;1.1;;;10.4;99.9;;;;;;;;;
2020/12/24 00:24:43;;;;;;;4.43;1.27;;;10.4;99.9;;;;;;;;;
2020/12/24 00:24:53;;;;;;;4.43;1.27;;;10.4;99.9;;;;;;;;;
2020/12/24 00:25:02;;;;;;;4.43;1.27;;;10.4;99.9;;;;;;;;;
2020/12/24 00:25:08;;;;;;;4.43;1.27;;;10.4;99.9;;;;;;;;;
2020/12/24 00:25:14;;;;;;;4.43;1.27;;;10.4;99.9;;;;;;;;;
2020/12/24 00:25:34;;;;;;;3.1;1.2;;;10.4;99.9;;;;;;;;;
2020/12/24 00:25:39;;;;;;;3.1;1.2;;;10.4;99.9;;;;;;;;;
2020/12/24 00:26:00;;;;;;;3.1;1.2;;;10.4;99.9;;;;;;;;;
2020/12/24 00:26:02;;;;;;;3.1;1.2;;;10.4;99.9;;;;;;;;;
2020/12/24 00:26:05;;;;;;;3.1;1.2;;;10.4;99.9;;;;;;;;;
2020/12/24 00:26:15;;;;;;;3.1;1.2;;;10.4;99.9;;;;;;;;;
2020/12/24 00:26:25;;;;;;;3.1;1.2;;;10.4;99.9;;;;;;;;;
2020/12/24 00:26:41;;;;;;;4.2;0.85;;;10.4;99.9;;;;;;;;;
2020/12/24 00:26:56;;;;;;;4.2;0.85;;;10.4;99.9;;;;;;;;;
2020/12/24 00:27:02;;;;;;;4.2;0.85;;;10.4;99.9;;;;;;;;;
2020/12/24 00:27:06;;;;;;;4.2;0.85;;;10.4;99.9;;;;;;;;;
2020/12/24 00:27:16;;;;;;;4.2;0.85;;;10.4;99.9;;;;;;;;;
2020/12/24 00:27:27;;;;;;;4.2;0.85;;;10.4;99.9;;;;;;;;;
2020/12/24 00:27:47;;;;;;;3.1;1.1;;;10.3;99.9;;;;;;;;;
2020/12/24 00:27:52;;;;;;;3.1;1.1;;;10.3;99.9;;;;;;;;;
2020/12/24 00:28:02;;;;;;;3.1;1.1;;;10.3;99.9;;;;;;;;;
2020/12/24 00:28:13;;;;;;;3.1;1.1;;;10.3;99.9;;;;;;;;;
2020/12/24 00:28:13;;;;;;;3.1;1.1;;;10.3;99.9;;;;;;;;;
2020/12/24 00:28:28;;;;;;;3.1;1.1;;;10.3;99.9;;;;;;;;;
2020/12/24 00:28:38;;;;;;;2.9;1.35;;;10.4;99.9;;;;;;;;;
2020/12/24 00:28:59;;;;;;;2.9;1.35;;;10.4;99.9;;;;;;;;;
2020/12/24 00:29:06;;;;;;;2.9;1.35;;;10.4;99.9;;;;;;;;;
2020/12/24 00:29:10;;;;;;;2.9;1.35;;;10.4;99.9;;;;;;;;;
2020/12/24 00:29:14;;;;;;;2.9;1.35;;;10.4;99.9;;;;;;;;;
2020/12/24 00:29:30;;;;;;;2.9;1.35;;;10.4;99.9;;;;;;;;;
2020/12/24 00:29:40;;;;;;;2.33;1.2;;;10.4;99.9;;;;;;;;;
2020/12/24 00:30:00;;;;;;;2.33;1.2;;;10.4;99.9;;;;;;;;;
2020/12/24 00:30:02;;;;;;;2.33;1.2;;;10.4;99.9;;;;;;;;;
2020/12/24 00:30:06;;;;;;;2.33;1.2;;;10.4;99.9;;;;;;;;;
2020/12/24 00:30:16;;;;;;;2.33;1.2;;;10.4;99.9;;;;;;;;;
2020/12/24 00:30:26;;;;;;;2.33;1.2;;;10.4;99.9;;;;;;;;;
2020/12/24 00:30:41;;;;;;;4.47;1.4;;;10.4;99.9;;;;;;;;;
2020/12/24 00:30:51;;;;;;;4.47;1.4;;;10.4;99.9;;;;;;;;;
2020/12/24 00:31:01;;;;;;;4.47;1.4;;;10.4;99.9;;;;;;;;;
2020/12/24 00:31:12;;;;;;;4.47;1.4;;;10.4;99.9;;;;;;;;;
2020/12/24 00:31:17;;;;;;;4.47;1.4;;;10.4;99.9;;;;;;;;;
2020/12/24 00:31:27;;;;;;;4.47;1.4;;;10.4;99.9;;;;;;;;;
2020/12/24 00:31:43;;;;;;;4.7;1.45;;;10.3;99.9;;;;;;;;;
2020/12/24 00:31:53;;;;;;;4.7;1.45;;;10.3;99.9;;;;;;;;;
2020/12/24 00:32:02;;;;;;;4.7;1.45;;;10.3;99.9;;;;;;;;;
2020/12/24 00:32:13;;;;;;;4.7;1.45;;;10.3;99.9;;;;;;;;;
2020/12/24 00:32:13;;;;;;;4.7;1.45;;;10.3;99.9;;;;;;;;;
2020/12/24 00:32:29;;;;;;;4.7;1.45;;;10.3;99.9;;;;;;;;;
2020/12/24 00:32:39;;;;;;;4.68;1.4;;;10.3;99.9;;;;;;;;;
2020/12/24 00:32:54;;;;;;;4.68;1.4;;;10.3;99.9;;;;;;;;;
2020/12/24 00:33:02;;;;;;;4.68;1.4;;;10.3;99.9;;;;;;;;;
2020/12/24 00:33:05;;;;;;;4.68;1.4;;;10.3;99.9;;;;;;;;;
2020/12/24 00:33:15;;;;;;;4.68;1.4;;;10.3;99.9;;;;;;;;;
2020/12/24 00:33:30;;;;;;;4.68;1.4;;;10.3;99.9;;;;;;;;;
2020/12/24 00:33:40;;;;;;;3.97;1.13;;;10.3;99.9;;;;;;;;;
2020/12/24 00:33:56;;;;;;;3.97;1.13;;;10.3;99.9;;;;;;;;;
2020/12/24 00:34:02;;;;;;;3.97;1.13;;;10.3;99.9;;;;;;;;;
2020/12/24 00:34:06;;;;;;;3.97;1.13;;;10.3;99.9;;;;;;;;;
2020/12/24 00:34:16;;;;;;;3.97;1.13;;;10.3;99.9;;;;;;;;;
2020/12/24 00:34:26;;;;;;;3.97;1.13;;;10.3;99.9;;;;;;;;;
2020/12/24 00:34:42;;;;;;;5.63;1.3;;;10.3;99.9;;;;;;;;;
2020/12/24 00:34:52;;;;;;;5.63;1.3;;;10.3;99.9;;;;;;;;;
2020/12/24 00:35:02;;;;;;;5.63;1.3;;;10.3;99.9;;;;;;;;;
2020/12/24 00:35:07;;;;;;;5.63;1.3;;;10.3;99.9;;;;;;;;;
2020/12/24 00:35:13;;;;;;;5.63;1.3;;;10.3;99.9;;;;;;;;;
2020/12/24 00:35:28;;;;;;;5.63;1.3;;;10.3;99.9;;;;;;;;;
2020/12/24 00:35:43;;;;;;;8.25;1.5;;;10.3;99.9;;;;;;;;;
2020/12/24 00:35:54;;;;;;;8.25;1.5;;;10.3;99.9;;;;;;;;;
2020/12/24 00:36:01;;;;;;;8.25;1.5;;;10.3;99.9;;;;;;;;;
2020/12/24 00:36:09;;;;;;;8.25;1.5;;;10.3;99.9;;;;;;;;;
2020/12/24 00:36:14;;;;;;;8.25;1.5;;;10.3;99.9;;;;;;;;;
2020/12/24 00:36:29;;;;;;;8.25;1.5;;;10.3;99.9;;;;;;;;;
2020/12/24 00:36:40;;;;;;;4.47;1.6;;;10.3;99.9;;;;;;;;;
2020/12/24 00:36:55;;;;;;;4.47;1.6;;;10.3;99.9;;;;;;;;;
2020/12/24 00:37:02;;;;;;;4.47;1.6;;;10.3;99.9;;;;;;;;;
2020/12/24 00:37:05;;;;;;;4.47;1.6;;;10.3;99.9;;;;;;;;;
2020/12/24 00:37:15;;;;;;;4.47;1.6;;;10.3;99.9;;;;;;;;;
2020/12/24 00:37:26;;;;;;;4.47;1.6;;;10.3;99.9;;;;;;;;;
2020/12/24 00:37:41;;;;;;;2.95;1.2;;;10.3;99.9;;;;;;;;;
2020/12/24 00:37:56;;;;;;;2.95;1.2;;;10.3;99.9;;;;;;;;;
2020/12/24 00:38:02;;;;;;;2.95;1.2;;;10.3;99.9;;;;;;;;;
2020/12/24 00:38:07;;;;;;;2.95;1.2;;;10.3;99.9;;;;;;;;;
2020/12/24 00:38:12;;;;;;;2.95;1.2;;;10.3;99.9;;;;;;;;;
2020/12/24 00:38:28;;;;;;;2.95;1.2;;;10.3;99.9;;;;;;;;;
2020/12/24 00:38:42;;;;;;;3.35;1.1;;;10.2;99.9;;;;;;;;;
2020/12/24 00:38:53;;;;;;;3.35;1.1;;;10.2;99.9;;;;;;;;;
2020/12/24 00:39:02;;;;;;;3.35;1.1;;;10.2;99.9;;;;;;;;;
2020/12/24 00:39:08;;;;;;;3.35;1.1;;;10.2;99.9;;;;;;;;;
2020/12/24 00:39:13;;;;;;;3.35;1.1;;;10.2;99.9;;;;;;;;;
2020/12/24 00:39:28;;;;;;;3.35;1.1;;;10.2;99.9;;;;;;;;;
2020/12/24 00:39:39;;;;;;;4.43;1.45;;;10.2;99.9;;;;;;;;;
2020/12/24 00:39:54;;;;;;;4.43;1.45;;;10.2;99.9;;;;;;;;;
2020/12/24 00:40:02;;;;;;;4.43;1.45;;;10.2;99.9;;;;;;;;;
2020/12/24 00:40:09;;;;;;;4.43;1.45;;;10.2;99.9;;;;;;;;;
2020/12/24 00:40:15;;;;;;;4.43;1.45;;;10.2;99.9;;;;;;;;;
2020/12/24 00:40:27;;;;;;;4.43;1.45;;;10.2;99.9;;;;;;;;;
2020/12/24 00:40:40;;;;;;;4.97;2.13;;;10.2;99.9;;;;;;;;;
2020/12/24 00:40:56;;;;;;;4.97;2.13;;;10.2;99.9;;;;;;;;;
2020/12/24 00:41:01;;;;;;;4.97;2.13;;;10.2;99.9;;;;;;;;;
2020/12/24 00:41:06;;;;;;;4.97;2.13;;;10.2;99.9;;;;;;;;;
2020/12/24 00:41:16;;;;;;;4.97;2.13;;;10.2;99.9;;;;;;;;;
2020/12/24 00:41:26;;;;;;;4.97;2.13;;;10.2;99.9;;;;;;;;;
2020/12/24 00:41:42;;;;;;;4.2;1.1;;;10.2;99.9;;;;;;;;;
2020/12/24 00:41:52;;;;;;;4.2;1.1;;;10.2;99.9;;;;;;;;;
2020/12/24 00:42:02;;;;;;;4.2;1.1;;;10.2;99.9;;;;;;;;;
2020/12/24 00:42:07;;;;;;;4.2;1.1;;;10.2;99.9;;;;;;;;;
2020/12/24 00:42:12;;;;;;;4.2;1.1;;;10.2;99.9;;;;;;;;;
2020/12/24 00:42:28;;;;;;;4.2;1.1;;;10.2;99.9;;;;;;;;;
2020/12/24 00:42:38;;;;;;;4.9;1.45;;;10.2;99.9;;;;;;;;;
2020/12/24 00:42:53;;;;;;;4.9;1.45;;;10.2;99.9;;;;;;;;;
2020/12/24 00:43:02;;;;;;;4.9;1.45;;;10.2;99.9;;;;;;;;;
2020/12/24 00:43:09;;;;;;;4.9;1.45;;;10.2;99.9;;;;;;;;;
2020/12/24 00:43:14;;;;;;;4.9;1.45;;;10.2;99.9;;;;;;;;;
2020/12/24 00:43:29;;;;;;;4.9;1.45;;;10.2;99.9;;;;;;;;;
2020/12/24 00:43:39;;;;;;;6.5;1.3;;;10.1;99.9;;;;;;;;;
2020/12/24 00:43:55;;;;;;;6.5;1.3;;;10.1;99.9;;;;;;;;;
2020/12/24 00:44:02;;;;;;;6.5;1.3;;;10.1;99.9;;;;;;;;;
2020/12/24 00:44:05;;;;;;;6.5;1.3;;;10.1;99.9;;;;;;;;;
2020/12/24 00:44:15;;;;;;;6.5;1.3;;;10.1;99.9;;;;;;;;;
2020/12/24 00:44:26;;;;;;;6.5;1.3;;;10.1;99.9;;;;;;;;;
2020/12/24 00:44:41;;;;;;;3.97;1.13;;;10.2;99.9;;;;;;;;;
2020/12/24 00:44:51;;;;;;;3.97;1.13;;;10.2;99.9;;;;;;;;;
2020/12/24 00:45:02;;;;;;;3.97;1.13;;;10.2;99.9;;;;;;;;;
2020/12/24 00:45:06;;;;;;;3.97;1.13;;;10.2;99.9;;;;;;;;;
2020/12/24 00:45:17;;;;;;;3.97;1.13;;;10.2;99.9;;;;;;;;;
2020/12/24 00:45:27;;;;;;;3.97;1.13;;;10.2;99.9;;;;;;;;;
2020/12/24 00:45:42;;;;;;;4.2;1.15;;;10.1;99.9;;;;;;;;;
2020/12/24 00:45:52;;;;;;;4.2;1.15;;;10.1;99.9;;;;;;;;;
2020/12/24 00:46:01;;;;;;;4.2;1.15;;;10.1;99.9;;;;;;;;;
2020/12/24 00:46:08;;;;;;;4.2;1.15;;;10.1;99.9;;;;;;;;;
2020/12/24 00:46:13;;;;;;;4.2;1.15;;;10.1;99.9;;;;;;;;;
2020/12/24 00:46:28;;;;;;;4.2;1.15;;;10.1;99.9;;;;;;;;;
2020/12/24 00:46:39;;;;;;;5.93;1.7;;;10.1;99.9;;;;;;;;;
2020/12/24 00:46:54;;;;;;;5.93;1.7;;;10.1;99.9;;;;;;;;;
2020/12/24 00:47:02;;;;;;;5.93;1.7;;;10.1;99.9;;;;;;;;;
2020/12/24 00:47:04;;;;;;;5.93;1.7;;;10.1;99.9;;;;;;;;;
2020/12/24 00:47:14;;;;;;;5.93;1.7;;;10.1;99.9;;;;;;;;;
2020/12/24 00:47:30;;;;;;;5.93;1.7;;;10.1;99.9;;;;;;;;;
2020/12/24 00:47:40;;;;;;;5.53;1.58;;;10.1;99.9;;;;;;;;;
2020/12/24 00:47:55;;;;;;;5.53;1.58;;;10.1;99.9;;;;;;;;;
2020/12/24 00:48:02;;;;;;;5.53;1.58;;;10.1;99.9;;;;;;;;;
2020/12/24 00:48:06;;;;;;;5.53;1.58;;;10.1;99.9;;;;;;;;;
2020/12/24 00:48:16;;;;;;;5.53;1.58;;;10.1;99.9;;;;;;;;;
2020/12/24 00:48:26;;;;;;;5.53;1.58;;;10.1;99.9;;;;;;;;;
2020/12/24 00:48:41;;;;;;;2.8;1.42;;;10.1;99.9;;;;;;;;;
2020/12/24 00:48:52;;;;;;;2.8;1.42;;;10.1;99.9;;;;;;;;;
2020/12/24 00:49:02;;;;;;;2.8;1.42;;;10.1;99.9;;;;;;;;;
2020/12/24 00:49:07;;;;;;;2.8;1.42;;;10.1;99.9;;;;;;;;;
2020/12/24 00:49:12;;;;;;;2.8;1.42;;;10.1;99.9;;;;;;;;;
2020/12/24 00:49:28;;;;;;;2.8;1.42;;;10.1;99.9;;;;;;;;;
2020/12/24 00:49:43;;;;;;;4.28;1.42;;;10.1;99.9;;;;;;;;;
2020/12/24 00:49:54;;;;;;;4.28;1.42;;;10.1;99.9;;;;;;;;;
2020/12/24 00:50:02;;;;;;;4.28;1.42;;;10.1;99.9;;;;;;;;;
2020/12/24 00:50:09;;;;;;;4.28;1.42;;;10.1;99.9;;;;;;;;;
2020/12/24 00:50:14;;;;;;;4.28;1.42;;;10.1;99.9;;;;;;;;;
2020/12/24 00:50:29;;;;;;;4.28;1.42;;;10.1;99.9;;;;;;;;;
2020/12/24 00:50:39;;;;;;;3.58;1.2;;;10.1;99.9;;;;;;;;;
2020/12/24 00:50:55;;;;;;;3.58;1.2;;;10.1;99.9;;;;;;;;;
2020/12/24 00:51:01;;;;;;;3.58;1.2;;;10.1;99.9;;;;;;;;;
2020/12/24 00:51:05;;;;;;;3.58;1.2;;;10.1;99.9;;;;;;;;;
2020/12/24 00:51:15;;;;;;;3.58;1.2;;;10.1;99.9;;;;;;;;;
2020/12/24 00:51:25;;;;;;;3.58;1.2;;;10.1;99.9;;;;;;;;;
2020/12/24 00:51:41;;;;;;;2.5;1.23;;;10.1;99.9;;;;;;;;;
2020/12/24 00:51:56;;;;;;;2.5;1.23;;;10.1;99.9;;;;;;;;;
2020/12/24 00:52:02;;;;;;;2.5;1.23;;;10.1;99.9;;;;;;;;;
2020/12/24 00:52:06;;;;;;;2.5;1.23;;;10.1;99.9;;;;;;;;;
2020/12/24 00:52:16;;;;;;;2.5;1.23;;;10.1;99.9;;;;;;;;;
2020/12/24 00:52:27;;;;;;;2.5;1.23;;;10.1;99.9;;;;;;;;;
2020/12/24 00:52:42;;;;;;;4.47;0.9;;;10.1;99.9;;;;;;;;;
2020/12/24 00:52:52;;;;;;;4.47;0.9;;;10.1;99.9;;;;;;;;;
2020/12/24 00:53:01;;;;;;;4.47;0.9;;;10.1;99.9;;;;;;;;;
2020/12/24 00:53:08;;;;;;;4.47;0.9;;;10.1;99.9;;;;;;;;;
2020/12/24 00:53:14;;;;;;;4.47;0.9;;;10.1;99.9;;;;;;;;;
2020/12/24 00:53:28;;;;;;;4.47;0.9;;;10.1;99.9;;;;;;;;;
2020/12/24 00:53:38;;;;;;;4.47;0.9;;;10.1;99.9;;;;;;;;;
2020/12/24 00:53:54;;;;;;;1.58;0.8;;;10.1;99.9;;;;;;;;;
2020/12/24 00:54:02;;;;;;;1.58;0.8;;;10.1;99.9;;;;;;;;;
2020/12/24 00:54:09;;;;;;;1.58;0.8;;;10.1;99.9;;;;;;;;;
2020/12/24 00:54:14;;;;;;;1.58;0.8;;;10.1;99.9;;;;;;;;;
2020/12/24 00:54:30;;;;;;;1.58;0.8;;;10.1;99.9;;;;;;;;;
2020/12/24 00:54:40;;;;;;;1.58;0.8;;;10.1;99.9;;;;;;;;;
2020/12/24 00:54:55;;;;;;;4.78;1.2;;;10.1;99.9;;;;;;;;;
2020/12/24 00:55:02;;;;;;;4.78;1.2;;;10.1;99.9;;;;;;;;;
2020/12/24 00:55:05;;;;;;;4.78;1.2;;;10.1;99.9;;;;;;;;;
2020/12/24 00:55:18;;;;;;;4.78;1.2;;;10.1;99.9;;;;;;;;;
2020/12/24 00:55:26;;;;;;;4.78;1.2;;;10.1;99.9;;;;;;;;;
2020/12/24 00:55:42;;;;;;;2.8;1.33;;;10.1;99.9;;;;;;;;;
2020/12/24 00:55:52;;;;;;;2.8;1.33;;;10.1;99.9;;;;;;;;;
2020/12/24 00:56:01;;;;;;;2.8;1.33;;;10.1;99.9;;;;;;;;;
2020/12/24 00:56:08;;;;;;;2.8;1.33;;;10.1;99.9;;;;;;;;;
2020/12/24 00:56:12;;;;;;;2.8;1.33;;;10.1;99.9;;;;;;;;;
2020/12/24 00:56:27;;;;;;;2.8;1.33;;;10.1;99.9;;;;;;;;;
2020/12/24 00:56:43;;;;;;;5.43;1.08;;;10.1;99.9;;;;;;;;;
2020/12/24 00:56:53;;;;;;;5.43;1.08;;;10.1;99.9;;;;;;;;;
2020/12/24 00:57:02;;;;;;;5.43;1.08;;;10.1;99.9;;;;;;;;;
2020/12/24 00:57:08;;;;;;;5.43;1.08;;;10.1;99.9;;;;;;;;;
2020/12/24 00:57:13;;;;;;;5.43;1.08;;;10.1;99.9;;;;;;;;;
2020/12/24 00:57:29;;;;;;;5.43;1.08;;;10.1;99.9;;;;;;;;;
2020/12/24 00:57:39;;;;;;;5.43;1.08;;;10.1;99.9;;;;;;;;;
2020/12/24 00:57:54;;;;;;;4.13;1.2;;;10.1;99.9;;;;;;;;;
2020/12/24 00:58:02;;;;;;;4.13;1.2;;;10.1;99.9;;;;;;;;;
2020/12/24 00:58:05;;;;;;;4.13;1.2;;;10.1;99.9;;;;;;;;;
2020/12/24 00:58:15;;;;;;;4.13;1.2;;;10.1;99.9;;;;;;;;;
2020/12/24 00:58:25;;;;;;;4.13;1.2;;;10.1;99.9;;;;;;;;;
2020/12/24 00:58:41;;;;;;;4.13;1.2;;;10.1;99.9;;;;;;;;;
2020/12/24 00:58:56;;;;;;;4.13;1.1;;;10.1;99.9;;;;;;;;;
2020/12/24 00:59:02;;;;;;;4.13;1.1;;;10.1;99.9;;;;;;;;;
2020/12/24 00:59:06;;;;;;;4.13;1.1;;;10.1;99.9;;;;;;;;;
2020/12/24 00:59:18;;;;;;;4.13;1.1;;;10.1;99.9;;;;;;;;;
2020/12/24 00:59:27;;;;;;;4.13;1.1;;;10.1;99.9;;;;;;;;;
2020/12/24 00:59:42;;;;;;;4.75;1.95;;;10.1;99.9;;;;;;;;;
2020/12/24 00:59:52;;;;;;;4.75;1.95;;;10.1;99.9;;;;;;;;;
2020/12/24 01:00:02;;;;;;;4.75;1.95;;;10.1;99.9;;;;;;;;;
2020/12/24 01:00:08;;;;;;;4.75;1.95;;;10.1;99.9;;;;;;;;;
2020/12/24 01:00:13;;;;;;;4.75;1.95;;;10.1;99.9;;;;;;;;;
2020/12/24 01:00:28;;;;;;;4.75;1.95;;;10.1;99.9;;;;;;;;;
2020/12/24 01:00:38;;;;;;;4.75;1.95;;;10.1;99.9;;;;;;;;;
2020/12/24 01:00:54;;;;;;;3.88;1.23;;;10.1;99.9;;;;;;;;;
2020/12/24 01:01:01;;;;;;;3.88;1.23;;;10.1;99.9;;;;;;;;;
2020/12/24 01:01:09;;;;;;;3.88;1.23;;;10.1;99.9;;;;;;;;;
2020/12/24 01:01:14;;;;;;;3.88;1.23;;;10.1;99.9;;;;;;;;;
2020/12/24 01:01:29;;;;;;;3.88;1.23;;;10.1;99.9;;;;;;;;;
2020/12/24 01:01:40;;;;;;;3.88;1.23;;;10.1;99.9;;;;;;;;;
2020/12/24 01:01:55;;;;;;;5.15;1.38;;;10;99.9;;;;;;;;;
2020/12/24 01:02:02;;;;;;;5.15;1.38;;;10;99.9;;;;;;;;;
2020/12/24 01:02:05;;;;;;;5.15;1.38;;;10;99.9;;;;;;;;;
2020/12/24 01:02:16;;;;;;;5.15;1.38;;;10;99.9;;;;;;;;;
2020/12/24 01:02:31;;;;;;;5.15;1.38;;;10;99.9;;;;;;;;;
2020/12/24 01:02:41;;;;;;;5.15;1.38;;;10;99.9;;;;;;;;;
2020/12/24 01:02:51;;;;;;;5.47;1.77;;;9.9;99.9;;;;;;;;;
2020/12/24 01:03:01;;;;;;;5.47;1.77;;;9.9;99.9;;;;;;;;;
2020/12/24 01:03:07;;;;;;;5.47;1.77;;;9.9;99.9;;;;;;;;;
2020/12/24 01:03:12;;;;;;;5.47;1.77;;;9.9;99.9;;;;;;;;;
2020/12/24 01:03:27;;;;;;;5.47;1.77;;;9.9;99.9;;;;;;;;;
2020/12/24 01:03:43;;;;;;;5.47;1.77;;;9.9;99.9;;;;;;;;;
2020/12/24 01:03:53;;;;;;;4.22;1.6;;;9.9;99.9;;;;;;;;;
2020/12/24 01:04:02;;;;;;;4.22;1.6;;;9.9;99.9;;;;;;;;;
2020/12/24 01:04:08;;;;;;;4.22;1.6;;;9.9;99.9;;;;;;;;;
2020/12/24 01:04:13;;;;;;;4.22;1.6;;;9.9;99.9;;;;;;;;;
2020/12/24 01:04:29;;;;;;;4.22;1.6;;;9.9;99.9;;;;;;;;;
2020/12/24 01:04:44;;;;;;;2.78;1.33;;;10;99.9;;;;;;;;;
2020/12/24 01:04:54;;;;;;;2.78;1.33;;;10;99.9;;;;;;;;;
2020/12/24 01:05:02;;;;;;;2.78;1.33;;;10;99.9;;;;;;;;;
2020/12/24 01:05:05;;;;;;;2.78;1.33;;;10;99.9;;;;;;;;;
2020/12/24 01:05:15;;;;;;;2.78;1.33;;;10;99.9;;;;;;;;;
2020/12/24 01:05:25;;;;;;;2.78;1.33;;;10;99.9;;;;;;;;;
2020/12/24 01:05:40;;;;;;;2.78;1.33;;;10;99.9;;;;;;;;;
2020/12/24 01:05:56;;;;;;;4.35;1.23;;;10;99.9;;;;;;;;;
2020/12/24 01:06:02;;;;;;;4.35;1.23;;;10;99.9;;;;;;;;;
2020/12/24 01:06:06;;;;;;;4.35;1.23;;;10;99.9;;;;;;;;;
2020/12/24 01:06:16;;;;;;;4.35;1.23;;;10;99.9;;;;;;;;;
2020/12/24 01:06:26;;;;;;;4.35;1.23;;;10;99.9;;;;;;;;;
2020/12/24 01:06:42;;;;;;;4.35;1.23;;;10;99.9;;;;;;;;;
2020/12/24 01:06:57;;;;;;;6.78;1.33;;;10;99.9;;;;;;;;;
2020/12/24 01:07:02;;;;;;;6.78;1.33;;;10;99.9;;;;;;;;;
2020/12/24 01:07:07;;;;;;;6.78;1.33;;;10;99.9;;;;;;;;;
2020/12/24 01:07:18;;;;;;;6.78;1.33;;;10;99.9;;;;;;;;;
2020/12/24 01:07:28;;;;;;;6.78;1.33;;;10;99.9;;;;;;;;;
2020/12/24 01:07:38;;;;;;;6.78;1.33;;;10;99.9;;;;;;;;;
2020/12/24 01:07:53;;;;;;;5.45;1.65;;;10.1;99.9;;;;;;;;;
2020/12/24 01:08:01;;;;;;;5.45;1.65;;;10.1;99.9;;;;;;;;;
2020/12/24 01:08:09;;;;;;;5.45;1.65;;;10.1;99.9;;;;;;;;;
2020/12/24 01:08:14;;;;;;;5.45;1.65;;;10.1;99.9;;;;;;;;;
2020/12/24 01:08:29;;;;;;;5.45;1.65;;;10.1;99.9;;;;;;;;;
2020/12/24 01:08:40;;;;;;;5.45;1.65;;;10.1;99.9;;;;;;;;;
2020/12/24 01:08:55;;;;;;;6.55;1.3;;;10.1;99.9;;;;;;;;;
2020/12/24 01:09:02;;;;;;;6.55;1.3;;;10.1;99.9;;;;;;;;;
2020/12/24 01:09:10;;;;;;;6.55;1.3;;;10.1;99.9;;;;;;;;;
2020/12/24 01:09:15;;;;;;;6.55;1.3;;;10.1;99.9;;;;;;;;;
2020/12/24 01:09:31;;;;;;;6.55;1.3;;;10.1;99.9;;;;;;;;;
2020/12/24 01:09:41;;;;;;;6.55;1.3;;;10.1;99.9;;;;;;;;;
2020/12/24 01:09:51;;;;;;;5.05;1.52;;;10;99.9;;;;;;;;;
2020/12/24 01:10:02;;;;;;;5.05;1.52;;;10;99.9;;;;;;;;;
2020/12/24 01:10:07;;;;;;;5.05;1.52;;;10;99.9;;;;;;;;;
2020/12/24 01:10:12;;;;;;;5.05;1.52;;;10;99.9;;;;;;;;;
2020/12/24 01:10:27;;;;;;;5.05;1.52;;;10;99.9;;;;;;;;;
2020/12/24 01:10:42;;;;;;;5.05;1.52;;;10;99.9;;;;;;;;;
2020/12/24 01:10:53;;;;;;;3.92;1.45;;;9.9;99.9;;;;;;;;;
2020/12/24 01:11:02;;;;;;;3.92;1.45;;;9.9;99.9;;;;;;;;;
2020/12/24 01:11:08;;;;;;;3.92;1.45;;;9.9;99.9;;;;;;;;;
2020/12/24 01:11:13;;;;;;;3.92;1.45;;;9.9;99.9;;;;;;;;;
2020/12/24 01:11:29;;;;;;;3.92;1.45;;;9.9;99.9;;;;;;;;;
2020/12/24 01:11:44;;;;;;;3.92;1.45;;;9.9;99.9;;;;;;;;;
2020/12/24 01:11:54;;;;;;;5.82;1.3;;;10;99.9;;;;;;;;;
2020/12/24 01:12:02;;;;;;;5.82;1.3;;;10;99.9;;;;;;;;;
2020/12/24 01:12:04;;;;;;;5.82;1.3;;;10;99.9;;;;;;;;;
2020/12/24 01:12:15;;;;;;;5.82;1.3;;;10;99.9;;;;;;;;;
2020/12/24 01:12:25;;;;;;;5.82;1.3;;;10;99.9;;;;;;;;;
2020/12/24 01:12:40;;;;;;;5.82;1.3;;;10;99.9;;;;;;;;;
2020/12/24 01:12:56;;;;;;;4.47;1.5;;;10;99.9;;;;;;;;;
2020/12/24 01:13:01;;;;;;;4.47;1.5;;;10;99.9;;;;;;;;;
2020/12/24 01:13:06;;;;;;;4.47;1.5;;;10;99.9;;;;;;;;;
2020/12/24 01:13:16;;;;;;;4.47;1.5;;;10;99.9;;;;;;;;;
2020/12/24 01:13:26;;;;;;;4.47;1.5;;;10;99.9;;;;;;;;;
2020/12/24 01:13:42;;;;;;;4.47;1.5;;;10;99.9;;;;;;;;;
2020/12/24 01:13:57;;;;;;;4.32;1.2;;;10;99.9;;;;;;;;;
2020/12/24 01:14:02;;;;;;;4.32;1.2;;;10;99.9;;;;;;;;;
2020/12/24 01:14:07;;;;;;;4.32;1.2;;;10;99.9;;;;;;;;;
2020/12/24 01:14:12;;;;;;;4.32;1.2;;;10;99.9;;;;;;;;;
2020/12/24 01:14:28;;;;;;;4.32;1.2;;;10;99.9;;;;;;;;;
2020/12/24 01:14:38;;;;;;;4.32;1.2;;;10;99.9;;;;;;;;;
2020/12/24 01:14:53;;;;;;;4.28;1.5;;;9.9;99.9;;;;;;;;;
2020/12/24 01:15:02;;;;;;;4.28;1.5;;;9.9;99.9;;;;;;;;;
2020/12/24 01:15:09;;;;;;;4.28;1.5;;;9.9;99.9;;;;;;;;;
2020/12/24 01:15:14;;;;;;;4.28;1.5;;;9.9;99.9;;;;;;;;;
2020/12/24 01:15:29;;;;;;;4.28;1.5;;;9.9;99.9;;;;;;;;;
2020/12/24 01:15:39;;;;;;;4.28;1.5;;;9.9;99.9;;;;;;;;;
2020/12/24 01:15:55;;;;;;;3.38;1.13;;;9.9;99.9;;;;;;;;;
2020/12/24 01:16:02;;;;;;;3.38;1.13;;;9.9;99.9;;;;;;;;;
2020/12/24 01:16:10;;;;;;;3.38;1.13;;;9.9;99.9;;;;;;;;;